Time,TemperatureF,DewpointF,PressureIn,WindDirection,WindDirectionDegrees,WindSpeedMPH,WindSpeedGustMPH,Humidity,HourlyPrecipIn,Conditions,Clouds,dailyrainin,SoftwareType,DateUTC
2013-05-22 00:00:00,45.9,42.3,29.72,WSW,248,0.2,0.2,87,0.00,,,0.32,WUHU216HW,2013-05-22 07:00:00,
2013-05-22 00:05:00,45.9,42.3,29.72,WSW,248,0.2,0.2,87,0.00,,,0.32,WUHU216HW,2013-05-22 07:05:00,
2013-05-22 00:29:00,45.7,42.8,29.72,East,90,0.7,0.7,89,0.00,,,0.00,WUHU216HW,2013-05-22 07:29:00,
2013-05-22 00:30:00,45.7,42.8,29.72,East,90,0.7,0.7,89,0.00,,,0.00,WUHU216HW,2013-05-22 07:30:00,
2013-05-22 00:35:00,45.7,42.8,29.72,East,90,0.7,0.7,89,0.00,,,0.00,WUHU216HW,2013-05-22 07:35:00,
2013-05-22 00:59:00,45.2,42.8,29.71,East,90,0.2,0.2,91,0.00,,,0.00,WUHU216HW,2013-05-22 07:59:00,
2013-05-22 01:00:00,45.2,42.8,29.71,East,90,0.2,0.2,91,0.00,,,0.00,WUHU216HW,2013-05-22 08:00:00,
2013-05-22 01:05:00,45.2,42.8,29.71,East,90,0.2,0.2,91,0.00,,,0.00,WUHU216HW,2013-05-22 08:05:00,
2013-05-22 01:30:00,45.0,42.6,29.72,SE,135,0.9,0.9,91,0.00,,,0.00,WUHU216HW,2013-05-22 08:30:00,
2013-05-22 01:35:00,45.0,42.6,29.72,SE,135,0.9,0.9,91,0.00,,,0.00,WUHU216HW,2013-05-22 08:35:00,
2013-05-22 01:59:00,44.6,42.2,29.72,SE,135,3.4,3.4,91,0.00,,,0.00,WUHU216HW,2013-05-22 08:59:00,
2013-05-22 02:00:00,44.6,42.2,29.72,SE,135,3.4,3.4,91,0.00,,,0.00,WUHU216HW,2013-05-22 09:00:00,
2013-05-22 02:05:00,44.6,42.2,29.72,SE,135,3.4,3.4,91,0.00,,,0.00,WUHU216HW,2013-05-22 09:05:00,
2013-05-22 02:29:00,44.5,42.3,29.72,East,90,0.0,0.0,92,0.00,,,0.00,WUHU216HW,2013-05-22 09:29:00,
2013-05-22 02:30:00,44.5,42.3,29.72,East,90,0.0,0.0,92,0.00,,,0.00,WUHU216HW,2013-05-22 09:30:00,
2013-05-22 02:35:00,44.5,42.3,29.72,East,90,0.0,0.0,92,0.00,,,0.00,WUHU216HW,2013-05-22 09:35:00,
2013-05-22 02:59:00,44.3,41.9,29.73,SSE,158,0.7,0.7,91,0.00,,,0.00,WUHU216HW,2013-05-22 09:59:00,
2013-05-22 03:00:00,44.3,41.9,29.73,SSE,158,0.7,0.7,91,0.00,,,0.00,WUHU216HW,2013-05-22 10:00:00,
2013-05-22 03:05:00,44.3,41.9,29.73,SSE,158,0.7,0.7,91,0.00,,,0.00,WUHU216HW,2013-05-22 10:05:00,
2013-05-22 03:29:00,44.3,41.9,29.73,SSW,203,1.1,1.1,91,0.00,,,0.00,WUHU216HW,2013-05-22 10:29:00,
2013-05-22 03:30:00,44.3,41.9,29.73,SSW,203,1.1,1.1,91,0.00,,,0.00,WUHU216HW,2013-05-22 10:30:00,
2013-05-22 03:35:00,44.3,41.9,29.73,SSW,203,1.1,1.1,91,0.00,,,0.00,WUHU216HW,2013-05-22 10:35:00,
2013-05-22 03:59:00,44.1,41.9,29.72,ESE,113,1.6,1.6,92,0.00,,,0.00,WUHU216HW,2013-05-22 10:59:00,
2013-05-22 04:00:00,44.1,41.9,29.72,ESE,113,1.6,1.6,92,0.00,,,0.00,WUHU216HW,2013-05-22 11:00:00,
2013-05-22 04:05:00,44.1,41.9,29.72,ESE,113,1.6,1.6,92,0.00,,,0.00,WUHU216HW,2013-05-22 11:05:00,
2013-05-22 04:29:00,43.2,41.0,29.72,South,180,1.6,1.6,92,0.00,,,0.00,WUHU216HW,2013-05-22 11:29:00,
2013-05-22 04:30:00,43.2,41.0,29.72,South,180,1.6,1.6,92,0.00,,,0.00,WUHU216HW,2013-05-22 11:30:00,
2013-05-22 04:35:00,43.2,41.0,29.72,South,180,1.6,1.6,92,0.00,,,0.00,WUHU216HW,2013-05-22 11:35:00,
2013-05-22 05:00:00,42.5,40.1,29.72,ESE,113,1.1,1.1,91,0.00,,,0.00,WUHU216HW,2013-05-22 12:00:00,
2013-05-22 05:05:00,42.5,40.1,29.72,ESE,113,1.1,1.1,91,0.00,,,0.00,WUHU216HW,2013-05-22 12:05:00,
2013-05-22 05:29:00,41.8,39.6,29.71,SE,135,1.1,1.1,92,0.00,,,0.00,WUHU216HW,2013-05-22 12:29:00,
2013-05-22 05:30:00,41.8,39.6,29.71,SE,135,1.1,1.1,92,0.00,,,0.00,WUHU216HW,2013-05-22 12:30:00,
2013-05-22 05:35:00,41.8,39.6,29.71,SE,135,1.1,1.1,92,0.00,,,0.00,WUHU216HW,2013-05-22 12:35:00,
2013-05-22 06:00:00,41.4,39.5,29.71,NE,45,0.7,0.7,93,0.00,,,0.00,WUHU216HW,2013-05-22 13:00:00,
2013-05-22 06:05:00,41.4,39.5,29.71,NE,45,0.7,0.7,93,0.00,,,0.00,WUHU216HW,2013-05-22 13:05:00,
2013-05-22 06:30:00,41.4,39.2,29.71,SSW,203,0.2,0.2,92,0.00,,,0.00,WUHU216HW,2013-05-22 13:30:00,
2013-05-22 06:35:00,41.4,39.2,29.71,SSW,203,0.2,0.2,92,0.00,,,0.00,WUHU216HW,2013-05-22 13:35:00,
2013-05-22 07:00:00,41.4,39.2,29.71,WSW,248,0.7,0.7,92,0.00,,,0.00,WUHU216HW,2013-05-22 14:00:00,
2013-05-22 07:05:00,41.4,39.2,29.71,WSW,248,0.7,0.7,92,0.00,,,0.00,WUHU216HW,2013-05-22 14:05:00,
2013-05-22 07:29:00,41.6,39.7,29.72,South,180,0.0,0.0,93,0.00,,,0.00,WUHU216HW,2013-05-22 14:29:00,
2013-05-22 07:30:00,41.6,39.7,29.72,South,180,0.0,0.0,93,0.00,,,0.00,WUHU216HW,2013-05-22 14:30:00,
2013-05-22 07:35:00,41.6,39.7,29.72,South,180,0.0,0.0,93,0.00,,,0.00,WUHU216HW,2013-05-22 14:35:00,
2013-05-22 07:59:00,41.9,40.1,29.72,SSW,203,0.0,0.0,93,0.00,,,0.00,WUHU216HW,2013-05-22 14:59:00,
2013-05-22 08:00:00,41.9,40.1,29.72,SSW,203,0.0,0.0,93,0.00,,,0.00,WUHU216HW,2013-05-22 15:00:00,
2013-05-22 08:05:00,41.9,40.1,29.72,SSW,203,0.0,0.0,93,0.00,,,0.00,WUHU216HW,2013-05-22 15:05:00,
2013-05-22 08:29:00,42.5,40.6,29.72,SSW,203,0.4,0.4,93,0.00,,,0.00,WUHU216HW,2013-05-22 15:29:00,
2013-05-22 08:30:00,42.5,40.6,29.72,SSW,203,0.4,0.4,93,0.00,,,0.00,WUHU216HW,2013-05-22 15:30:00,
2013-05-22 08:35:00,42.5,40.6,29.72,SSW,203,0.4,0.4,93,0.00,,,0.00,WUHU216HW,2013-05-22 15:35:00,
2013-05-22 08:59:00,43.6,41.7,29.72,South,180,0.0,0.0,93,0.00,,,0.00,WUHU216HW,2013-05-22 15:59:00,
2013-05-22 09:00:00,43.6,41.7,29.72,South,180,0.0,0.0,93,0.00,,,0.00,WUHU216HW,2013-05-22 16:00:00,
2013-05-22 09:05:00,43.6,41.7,29.72,South,180,0.0,0.0,93,0.00,,,0.00,WUHU216HW,2013-05-22 16:05:00,
2013-05-22 09:29:00,44.1,41.9,29.72,SSE,158,0.2,0.2,92,0.00,,,0.00,WUHU216HW,2013-05-22 16:29:00,
2013-05-22 09:30:00,44.1,41.9,29.72,SSE,158,0.2,0.2,92,0.00,,,0.00,WUHU216HW,2013-05-22 16:30:00,
2013-05-22 09:35:00,44.1,41.9,29.72,SSE,158,0.2,0.2,92,0.00,,,0.00,WUHU216HW,2013-05-22 16:35:00,
2013-05-22 09:59:00,44.3,42.1,29.72,South,180,0.9,0.9,92,0.00,,,0.00,WUHU216HW,2013-05-22 16:59:00,
2013-05-22 10:00:00,44.3,42.1,29.72,South,180,0.9,0.9,92,0.00,,,0.00,WUHU216HW,2013-05-22 17:00:00,
2013-05-22 10:05:00,44.3,42.1,29.72,South,180,0.9,0.9,92,0.00,,,0.00,WUHU216HW,2013-05-22 17:05:00,
2013-05-22 10:29:00,45.0,42.8,29.73,SE,135,1.8,1.8,92,0.00,,,0.00,WUHU216HW,2013-05-22 17:29:00,
2013-05-22 10:30:00,45.0,42.8,29.73,SE,135,1.8,1.8,92,0.00,,,0.00,WUHU216HW,2013-05-22 17:30:00,
2013-05-22 10:35:00,45.0,42.8,29.73,SE,135,1.8,1.8,92,0.00,,,0.00,WUHU216HW,2013-05-22 17:35:00,
2013-05-22 10:59:00,45.7,43.3,29.73,SW,225,1.6,1.6,91,0.00,,,0.00,WUHU216HW,2013-05-22 17:59:00,
2013-05-22 11:00:00,45.7,43.3,29.73,SW,225,1.6,1.6,91,0.00,,,0.00,WUHU216HW,2013-05-22 18:00:00,
2013-05-22 11:05:00,45.7,43.3,29.73,SW,225,1.6,1.6,91,0.00,,,0.00,WUHU216HW,2013-05-22 18:05:00,
2013-05-22 11:29:00,47.2,44.7,29.73,South,180,0.4,0.4,91,0.00,,,0.00,WUHU216HW,2013-05-22 18:29:00,
2013-05-22 11:30:00,47.2,44.7,29.73,South,180,0.4,0.4,91,0.00,,,0.00,WUHU216HW,2013-05-22 18:30:00,
2013-05-22 11:35:00,47.2,44.7,29.73,South,180,0.4,0.4,91,0.00,,,0.00,WUHU216HW,2013-05-22 18:35:00,
2013-05-22 11:59:00,47.5,45.1,29.73,SSW,203,1.8,1.8,91,0.00,,,0.00,WUHU216HW,2013-05-22 18:59:00,
2013-05-22 12:00:00,47.5,45.1,29.73,SSW,203,1.8,1.8,91,0.00,,,0.00,WUHU216HW,2013-05-22 19:00:00,
2013-05-22 12:05:00,47.5,45.1,29.73,SSW,203,1.8,1.8,91,0.00,,,0.00,WUHU216HW,2013-05-22 19:05:00,
2013-05-22 12:29:00,47.0,44.0,29.73,SSW,203,1.8,1.8,89,0.01,,,0.00,WUHU216HW,2013-05-22 19:29:00,
2013-05-22 12:30:00,47.0,44.0,29.73,SSW,203,1.8,1.8,89,0.01,,,0.00,WUHU216HW,2013-05-22 19:30:00,
2013-05-22 12:35:00,47.0,44.0,29.73,SSW,203,1.8,1.8,89,0.01,,,0.00,WUHU216HW,2013-05-22 19:35:00,
2013-05-22 12:59:00,49.9,46.1,29.74,SSW,203,2.0,2.0,87,0.01,,,0.02,WUHU216HW,2013-05-22 19:59:00,
2013-05-22 13:00:00,49.9,46.1,29.74,SSW,203,2.0,2.0,87,0.01,,,0.02,WUHU216HW,2013-05-22 20:00:00,
2013-05-22 13:05:00,49.9,46.1,29.74,SSW,203,2.0,2.0,87,0.01,,,0.02,WUHU216HW,2013-05-22 20:05:00,
2013-05-22 13:29:00,51.5,47.3,29.73,South,180,0.0,0.0,86,0.00,,,0.02,WUHU216HW,2013-05-22 20:29:00,
2013-05-22 13:30:00,51.5,47.3,29.73,South,180,0.0,0.0,86,0.00,,,0.02,WUHU216HW,2013-05-22 20:30:00,
2013-05-22 13:35:00,51.5,47.3,29.73,South,180,0.0,0.0,86,0.00,,,0.02,WUHU216HW,2013-05-22 20:35:00,
2013-05-22 13:59:00,50.4,46.3,29.73,SE,135,0.7,0.7,86,0.00,,,0.02,WUHU216HW,2013-05-22 20:59:00,
2013-05-22 14:00:00,50.4,46.3,29.73,SE,135,0.7,0.7,86,0.00,,,0.02,WUHU216HW,2013-05-22 21:00:00,
2013-05-22 14:05:00,50.4,46.3,29.73,SE,135,0.7,0.7,86,0.00,,,0.02,WUHU216HW,2013-05-22 21:05:00,
2013-05-22 14:29:00,48.6,44.9,29.74,SSE,158,1.8,1.8,87,0.00,,,0.02,WUHU216HW,2013-05-22 21:29:00,
2013-05-22 14:30:00,48.6,44.9,29.74,SSE,158,1.8,1.8,87,0.00,,,0.02,WUHU216HW,2013-05-22 21:30:00,
2013-05-22 14:35:00,48.6,44.9,29.74,SSE,158,1.8,1.8,87,0.00,,,0.02,WUHU216HW,2013-05-22 21:35:00,
2013-05-22 14:59:00,50.2,46.7,29.74,SW,225,1.8,1.8,88,0.00,,,0.02,WUHU216HW,2013-05-22 21:59:00,
2013-05-22 15:00:00,50.2,46.7,29.74,SW,225,1.8,1.8,88,0.00,,,0.02,WUHU216HW,2013-05-22 22:00:00,
2013-05-22 15:05:00,50.2,46.7,29.74,SW,225,1.8,1.8,88,0.00,,,0.02,WUHU216HW,2013-05-22 22:05:00,
2013-05-22 15:30:00,50.0,46.5,29.74,WSW,248,0.7,0.7,88,0.00,,,0.02,WUHU216HW,2013-05-22 22:30:00,
2013-05-22 15:35:00,50.0,46.5,29.74,WSW,248,0.7,0.7,88,0.00,,,0.02,WUHU216HW,2013-05-22 22:35:00,
2013-05-22 15:59:00,50.2,46.1,29.75,SSW,203,1.1,1.1,86,0.00,,,0.02,WUHU216HW,2013-05-22 22:59:00,
2013-05-22 16:00:00,50.2,46.1,29.75,SSW,203,1.1,1.1,86,0.00,,,0.02,WUHU216HW,2013-05-22 23:00:00,
2013-05-22 16:05:00,50.2,46.1,29.75,SSW,203,1.1,1.1,86,0.00,,,0.02,WUHU216HW,2013-05-22 23:05:00,
2013-05-22 16:29:00,51.5,47.3,29.74,North,0,0.0,0.0,86,0.00,,,0.02,WUHU216HW,2013-05-22 23:29:00,
2013-05-22 16:30:00,51.5,47.3,29.74,North,0,0.0,0.0,86,0.00,,,0.02,WUHU216HW,2013-05-22 23:30:00,
2013-05-22 16:35:00,51.5,47.3,29.74,North,0,0.0,0.0,86,0.00,,,0.02,WUHU216HW,2013-05-22 23:35:00,
2013-05-22 16:59:00,52.7,47.4,29.75,SSW,203,0.2,0.2,82,0.00,,,0.02,WUHU216HW,2013-05-22 23:59:00,
2013-05-22 17:00:00,52.7,47.4,29.75,SSW,203,0.2,0.2,82,0.00,,,0.02,WUHU216HW,2013-05-23 00:00:00,
2013-05-22 17:05:00,52.7,47.4,29.75,SSW,203,0.2,0.2,82,0.00,,,0.02,WUHU216HW,2013-05-23 00:05:00,
2013-05-22 17:29:00,50.4,46.6,29.75,East,90,0.9,0.9,87,0.00,,,0.02,WUHU216HW,2013-05-23 00:29:00,
2013-05-22 17:30:00,50.4,46.6,29.75,East,90,0.9,0.9,87,0.00,,,0.02,WUHU216HW,2013-05-23 00:30:00,
2013-05-22 17:35:00,50.4,46.6,29.75,East,90,0.9,0.9,87,0.00,,,0.02,WUHU216HW,2013-05-23 00:35:00,
2013-05-22 17:59:00,50.4,46.9,29.75,East,90,0.0,0.0,88,0.00,,,0.02,WUHU216HW,2013-05-23 00:59:00,
2013-05-22 18:00:00,50.4,46.9,29.75,East,90,0.0,0.0,88,0.00,,,0.02,WUHU216HW,2013-05-23 01:00:00,
2013-05-22 18:05:00,50.4,46.9,29.75,East,90,0.0,0.0,88,0.00,,,0.02,WUHU216HW,2013-05-23 01:05:00,
2013-05-22 18:29:00,51.3,47.8,29.75,ESE,113,0.4,0.4,88,0.00,,,0.02,WUHU216HW,2013-05-23 01:29:00,
2013-05-22 18:30:00,51.3,47.8,29.75,ESE,113,0.4,0.4,88,0.00,,,0.02,WUHU216HW,2013-05-23 01:30:00,
2013-05-22 18:35:00,51.3,47.8,29.75,ESE,113,0.4,0.4,88,0.00,,,0.02,WUHU216HW,2013-05-23 01:35:00,
2013-05-22 18:59:00,51.1,47.6,29.76,NE,45,0.0,0.0,88,0.00,,,0.02,WUHU216HW,2013-05-23 01:59:00,
2013-05-22 19:00:00,51.1,47.6,29.76,NE,45,0.0,0.0,88,0.00,,,0.02,WUHU216HW,2013-05-23 02:00:00,
2013-05-22 19:05:00,51.1,47.6,29.76,NE,45,0.0,0.0,88,0.00,,,0.02,WUHU216HW,2013-05-23 02:05:00,
2013-05-22 19:29:00,50.6,46.8,29.76,NNE,23,0.0,0.0,87,0.00,,,0.02,WUHU216HW,2013-05-23 02:29:00,
2013-05-22 19:30:00,50.6,46.8,29.76,NNE,23,0.0,0.0,87,0.00,,,0.02,WUHU216HW,2013-05-23 02:30:00,
2013-05-22 19:35:00,50.6,46.8,29.76,NNE,23,0.0,0.0,87,0.00,,,0.02,WUHU216HW,2013-05-23 02:35:00,
2013-05-22 20:00:00,48.6,45.5,29.76,NNE,23,0.4,0.4,89,0.00,,,0.02,WUHU216HW,2013-05-23 03:00:00,
2013-05-22 20:05:00,48.6,45.5,29.76,NNE,23,0.4,0.4,89,0.00,,,0.02,WUHU216HW,2013-05-23 03:05:00,
2013-05-22 20:30:00,47.7,45.3,29.76,SSE,158,0.0,0.0,91,0.00,,,0.02,WUHU216HW,2013-05-23 03:30:00,
2013-05-22 20:35:00,47.7,45.3,29.76,SSE,158,0.0,0.0,91,0.00,,,0.02,WUHU216HW,2013-05-23 03:35:00,
2013-05-22 20:59:00,47.3,45.2,29.76,North,0,0.0,0.0,92,0.00,,,0.02,WUHU216HW,2013-05-23 03:59:00,
2013-05-22 21:00:00,47.3,45.2,29.76,North,0,0.0,0.0,92,0.00,,,0.02,WUHU216HW,2013-05-23 04:00:00,
2013-05-22 21:01:00,47.3,45.2,29.76,North,0,0.0,0.0,92,0.00,,,0.02,WUHU216HW,2013-05-23 04:01:00,
2013-05-22 21:06:00,47.3,45.2,29.76,North,0,0.0,0.0,92,0.00,,,0.02,WUHU216HW,2013-05-23 04:06:00,
2013-05-22 21:30:00,47.2,45.0,29.77,NNE,23,0.0,0.0,92,0.02,,,0.02,WUHU216HW,2013-05-23 04:30:00,
2013-05-22 21:35:00,47.2,45.0,29.77,NNE,23,0.0,0.0,92,0.02,,,0.02,WUHU216HW,2013-05-23 04:35:00,
2013-05-22 21:59:00,46.6,44.7,29.77,NNE,23,0.0,0.0,93,0.03,,,0.04,WUHU216HW,2013-05-23 04:59:00,
2013-05-22 22:00:00,46.6,44.7,29.77,NNE,23,0.0,0.0,93,0.03,,,0.04,WUHU216HW,2013-05-23 05:00:00,
2013-05-22 22:05:00,46.6,44.7,29.77,NNE,23,0.0,0.0,93,0.03,,,0.04,WUHU216HW,2013-05-23 05:05:00,
2013-05-22 22:29:00,46.6,44.7,29.78,NNE,23,0.0,0.0,93,0.01,,,0.05,WUHU216HW,2013-05-23 05:29:00,
2013-05-22 22:30:00,46.6,44.7,29.78,NNE,23,0.0,0.0,93,0.01,,,0.05,WUHU216HW,2013-05-23 05:30:00,
2013-05-22 22:35:00,46.6,44.7,29.78,NNE,23,0.0,0.0,93,0.01,,,0.05,WUHU216HW,2013-05-23 05:35:00,
2013-05-22 22:59:00,45.2,43.0,29.77,NE,45,0.0,0.0,92,0.00,,,0.05,WUHU216HW,2013-05-23 05:59:00,
2013-05-22 23:00:00,45.2,43.0,29.77,NE,45,0.0,0.0,92,0.00,,,0.05,WUHU216HW,2013-05-23 06:00:00,
2013-05-22 23:05:00,45.2,43.0,29.77,NE,45,0.0,0.0,92,0.00,,,0.05,WUHU216HW,2013-05-23 06:05:00,
2013-05-22 23:29:00,44.6,42.5,29.77,NE,45,0.0,0.0,92,0.00,,,0.05,WUHU216HW,2013-05-23 06:29:00,
2013-05-22 23:30:00,44.6,42.5,29.77,NE,45,0.0,0.0,92,0.00,,,0.05,WUHU216HW,2013-05-23 06:30:00,
2013-05-22 23:35:00,44.6,42.5,29.77,NE,45,0.0,0.0,92,0.00,,,0.05,WUHU216HW,2013-05-23 06:35:00,
2013-05-22 23:59:00,43.2,41.0,29.77,East,90,0.0,0.0,92,0.00,,,0.05,WUHU216HW,2013-05-23 06:59:00,